createdAt,value
2019-02-11T00:00:16.231Z,0
2019-02-11T00:01:16.206Z,0
2019-02-11T00:02:16.190Z,0
2019-02-11T00:03:15.922Z,0
2019-02-11T00:04:16.163Z,0
2019-02-11T00:05:15.890Z,0
2019-02-11T00:06:16.122Z,0
2019-02-11T00:07:16.104Z,0
2019-02-11T00:08:16.096Z,0
2019-02-11T00:09:16.072Z,0
2019-02-11T00:10:16.063Z,0
2019-02-11T00:11:15.555Z,0
2019-02-11T00:12:16.018Z,0
2019-02-11T00:13:20.126Z,0
2019-02-11T00:14:15.985Z,0
2019-02-11T00:15:16.013Z,0
2019-02-11T00:16:15.948Z,0
2019-02-11T00:17:15.941Z,0
2019-02-11T00:18:15.674Z,0
2019-02-11T00:19:16.187Z,0
2019-02-11T00:20:16.045Z,0
2019-02-11T00:21:15.621Z,0
2019-02-11T00:22:15.352Z,0
2019-02-11T00:23:15.830Z,0
2019-02-11T00:24:16.107Z,0
2019-02-11T00:25:15.798Z,0
2019-02-11T00:26:15.549Z,0
2019-02-11T00:27:15.760Z,0
2019-02-11T00:28:15.759Z,0
2019-02-11T00:29:15.728Z,0
2019-02-11T00:30:15.707Z,0
2019-02-11T00:31:15.883Z,0
2019-02-11T00:32:15.425Z,0
2019-02-11T00:33:15.657Z,0
2019-02-11T00:34:15.643Z,0
2019-02-11T00:35:15.377Z,0
2019-02-11T00:36:15.604Z,0
2019-02-11T00:37:15.585Z,0
2019-02-11T00:38:15.087Z,0
2019-02-11T00:39:21.824Z,0
2019-02-11T00:40:15.058Z,0
2019-02-11T00:41:15.526Z,0
2019-02-11T00:42:15.511Z,0
2019-02-11T00:43:23.671Z,0
2019-02-11T00:44:15.478Z,0
2019-02-11T00:45:15.216Z,0
2019-02-11T00:46:15.442Z,0
2019-02-11T00:47:15.423Z,0
2019-02-11T00:48:16.766Z,0
2019-02-11T00:49:15.388Z,0
2019-02-11T00:50:15.369Z,0
2019-02-11T00:51:15.346Z,0
2019-02-11T00:52:15.340Z,0
2019-02-11T00:53:15.312Z,0
2019-02-11T00:54:15.304Z,0
2019-02-11T00:55:15.035Z,0
2019-02-11T00:56:15.266Z,0
2019-02-11T00:57:14.751Z,0
2019-02-11T00:58:15.234Z,0
2019-02-11T00:59:15.218Z,0
2019-02-11T01:00:15.193Z,0
2019-02-11T01:01:14.932Z,0
2019-02-11T01:02:14.927Z,0
2019-02-11T01:03:15.143Z,0
2019-02-11T01:04:15.132Z,0
2019-02-11T01:05:15.135Z,0
2019-02-11T01:06:15.298Z,0
2019-02-11T01:07:15.089Z,0
2019-02-11T01:08:15.055Z,0
2019-02-11T01:09:14.798Z,0
2019-02-11T01:10:15.039Z,0
2019-02-11T01:11:14.764Z,0
2019-02-11T01:12:14.985Z,0
2019-02-11T01:13:14.973Z,0
2019-02-11T01:14:14.704Z,0
2019-02-11T01:15:14.936Z,0
2019-02-11T01:16:14.672Z,0
2019-02-11T01:17:14.407Z,0
2019-02-11T01:18:14.888Z,0
2019-02-11T01:19:14.863Z,0
2019-02-11T01:20:14.667Z,0
2019-02-11T01:21:14.853Z,0
2019-02-11T01:22:14.072Z,0
2019-02-11T01:23:14.556Z,0
2019-02-11T01:24:14.283Z,0
2019-02-11T01:25:14.765Z,0
2019-02-11T01:26:14.747Z,0
2019-02-11T01:27:14.728Z,0
2019-02-11T01:28:14.480Z,0
2019-02-11T01:29:14.695Z,0
2019-02-11T01:30:14.187Z,0
2019-02-11T01:31:14.655Z,0
2019-02-11T01:32:14.650Z,0
2019-02-11T01:33:14.624Z,0
2019-02-11T01:34:14.605Z,0
2019-02-11T01:35:14.588Z,0
2019-02-11T01:36:14.326Z,0
2019-02-11T01:37:14.553Z,0
2019-02-11T01:38:14.295Z,0
2019-02-11T01:39:14.519Z,0
2019-02-11T01:40:14.266Z,0
2019-02-11T01:41:14.483Z,0
2019-02-11T01:42:14.278Z,0
2019-02-11T01:43:14.201Z,0
2019-02-11T01:44:14.431Z,0
2019-02-11T01:45:14.177Z,0
2019-02-11T01:46:14.405Z,0
2019-02-11T01:47:14.153Z,0
2019-02-11T01:48:13.870Z,0
2019-02-11T01:49:14.096Z,0
2019-02-11T01:50:14.328Z,0
2019-02-11T01:51:14.068Z,0
2019-02-11T01:52:14.054Z,0
2019-02-11T01:53:14.280Z,0
2019-02-11T01:54:14.251Z,0
2019-02-11T01:55:13.990Z,0
2019-02-11T01:56:14.220Z,0
2019-02-11T01:57:13.950Z,0
2019-02-11T01:58:14.190Z,0
2019-02-11T01:59:13.923Z,0
2019-02-11T02:00:14.155Z,0
2019-02-11T02:01:14.139Z,0
2019-02-11T02:02:13.624Z,0
2019-02-11T02:03:14.103Z,0
2019-02-11T02:04:14.085Z,0
2019-02-11T02:05:14.066Z,0
2019-02-11T02:06:14.111Z,0
2019-02-11T02:07:14.027Z,0
2019-02-11T02:08:14.021Z,0
2019-02-11T02:09:13.991Z,0
2019-02-11T02:10:13.997Z,0
2019-02-11T02:11:13.962Z,0
2019-02-11T02:12:13.940Z,0
2019-02-11T02:13:13.928Z,0
2019-02-11T02:14:13.909Z,0
2019-02-11T02:15:13.890Z,0
2019-02-11T02:16:13.873Z,0
2019-02-11T02:17:13.607Z,0
2019-02-11T02:18:13.591Z,0
2019-02-11T02:19:13.819Z,0
2019-02-11T02:20:13.797Z,0
2019-02-11T02:21:13.534Z,0
2019-02-11T02:22:13.762Z,0
2019-02-11T02:23:13.249Z,0
2019-02-11T02:24:13.730Z,0
2019-02-11T02:25:13.715Z,0
2019-02-11T02:26:13.695Z,0
2019-02-11T02:27:13.982Z,0
2019-02-11T02:28:13.660Z,0
2019-02-11T02:29:13.640Z,0
2019-02-11T02:30:13.651Z,0
2019-02-11T02:31:13.609Z,0
2019-02-11T02:32:13.595Z,0
2019-02-11T02:33:13.566Z,0
2019-02-11T02:34:13.555Z,0
2019-02-11T02:35:13.279Z,0
2019-02-11T02:36:13.523Z,0
2019-02-11T02:37:13.501Z,0
2019-02-11T02:38:13.533Z,0
2019-02-11T02:39:13.472Z,0
2019-02-11T02:40:13.453Z,0
2019-02-11T02:41:13.454Z,0
2019-02-11T02:42:13.160Z,0
2019-02-11T02:43:13.398Z,0
2019-02-11T02:44:13.383Z,0
2019-02-11T02:45:13.180Z,0
2019-02-11T02:46:13.346Z,0
2019-02-11T02:47:13.082Z,0
2019-02-11T02:48:13.062Z,0
2019-02-11T02:49:13.286Z,0
2019-02-11T02:50:13.328Z,0
2019-02-11T02:51:13.249Z,0
2019-02-11T02:52:12.981Z,0
2019-02-11T02:53:13.215Z,0
2019-02-11T02:54:13.200Z,0
2019-02-11T02:55:13.204Z,0
2019-02-11T02:56:13.168Z,0
2019-02-11T02:57:13.137Z,0
2019-02-11T02:58:13.152Z,0
2019-02-11T02:59:12.855Z,0
2019-02-11T03:00:13.087Z,0
2019-02-11T03:01:13.065Z,0
2019-02-11T03:02:12.554Z,0
2019-02-11T03:03:13.043Z,0
2019-02-11T03:04:13.016Z,0
2019-02-11T03:05:12.991Z,0
2019-02-11T03:06:12.737Z,0
2019-02-11T03:07:12.949Z,0
2019-02-11T03:08:12.951Z,0
2019-02-11T03:09:12.675Z,0
2019-02-11T03:10:12.913Z,0
2019-02-11T03:11:12.640Z,0
2019-02-11T03:12:12.872Z,0
2019-02-11T03:13:14.776Z,0
2019-02-11T03:14:15.187Z,0
2019-02-11T03:15:12.567Z,0
2019-02-11T03:16:12.567Z,0
2019-02-11T03:17:12.535Z,0
2019-02-11T03:18:12.797Z,0
2019-02-11T03:19:12.762Z,0
2019-02-11T03:20:12.772Z,0
2019-02-11T03:21:12.714Z,0
2019-02-11T03:22:12.697Z,0
2019-02-11T03:23:12.669Z,0
2019-02-11T03:24:12.675Z,0
2019-02-11T03:25:12.393Z,0
2019-02-11T03:26:12.614Z,0
2019-02-11T03:27:12.595Z,0
2019-02-11T03:28:12.325Z,0
2019-02-11T03:29:12.299Z,0
2019-02-11T03:30:12.555Z,0
2019-02-11T03:31:12.061Z,0
2019-02-11T03:32:12.516Z,0
2019-02-11T03:33:12.589Z,0
2019-02-11T03:34:12.473Z,0
2019-02-11T03:35:12.453Z,0
2019-02-11T03:36:12.432Z,0
2019-02-11T03:37:12.161Z,0
2019-02-11T03:38:12.385Z,0
2019-02-11T03:39:12.382Z,0
2019-02-11T03:40:12.357Z,0
2019-02-11T03:41:12.329Z,0
2019-02-11T03:42:12.074Z,0
2019-02-11T03:43:12.472Z,0
2019-02-11T03:44:21.939Z,0
2019-02-11T03:45:12.256Z,0
2019-02-11T03:46:12.237Z,0
2019-02-11T03:47:12.223Z,0
2019-02-11T03:48:11.964Z,0
2019-02-11T03:49:11.940Z,0
2019-02-11T03:50:12.018Z,0
2019-02-11T03:51:11.900Z,0
2019-02-11T03:52:12.145Z,0
2019-02-11T03:53:12.113Z,0
2019-02-11T03:54:12.141Z,0
2019-02-11T03:55:12.085Z,0
2019-02-11T03:56:11.814Z,0
2019-02-11T03:57:12.033Z,0
2019-02-11T03:58:11.921Z,0
2019-02-11T03:59:12.003Z,0
2019-02-11T04:00:12.028Z,0
2019-02-11T04:01:12.063Z,0
2019-02-11T04:02:11.955Z,0
2019-02-11T04:03:11.682Z,0
2019-02-11T04:04:11.908Z,0
2019-02-11T04:05:11.902Z,0
2019-02-11T04:06:11.877Z,0
2019-02-11T04:07:11.643Z,0
2019-02-11T04:08:11.835Z,0
2019-02-11T04:09:11.819Z,0
2019-02-11T04:10:11.803Z,0
2019-02-11T04:11:11.784Z,0
2019-02-11T04:12:11.773Z,0
2019-02-11T04:13:11.743Z,0
2019-02-11T04:14:11.488Z,0
2019-02-11T04:15:11.712Z,0
2019-02-11T04:16:11.512Z,0
2019-02-11T04:17:11.670Z,0
2019-02-11T04:18:11.402Z,0
2019-02-11T04:19:11.639Z,0
2019-02-11T04:20:11.637Z,0
2019-02-11T04:21:11.608Z,0
2019-02-11T04:22:11.566Z,0
2019-02-11T04:23:11.555Z,0
2019-02-11T04:24:11.298Z,0
2019-02-11T04:25:11.543Z,0
2019-02-11T04:26:11.512Z,0
2019-02-11T04:27:11.226Z,0
2019-02-11T04:28:11.462Z,0
2019-02-11T04:29:11.448Z,0
2019-02-11T04:30:11.445Z,0
2019-02-11T04:31:11.149Z,0
2019-02-11T04:32:11.405Z,0
2019-02-11T04:33:11.117Z,0
2019-02-11T04:34:11.104Z,0
2019-02-11T04:35:11.357Z,0
2019-02-11T04:36:11.325Z,0
2019-02-11T04:37:11.288Z,0
2019-02-11T04:38:11.272Z,0
2019-02-11T04:39:11.284Z,0
2019-02-11T04:40:11.039Z,0
2019-02-11T04:41:11.213Z,0
2019-02-11T04:42:10.947Z,0
2019-02-11T04:43:11.178Z,0
2019-02-11T04:44:11.157Z,0
2019-02-11T04:45:10.893Z,0
2019-02-11T04:46:10.620Z,0
2019-02-11T04:47:11.121Z,0
2019-02-11T04:48:10.846Z,0
2019-02-11T04:49:10.815Z,0
2019-02-11T04:50:11.077Z,0
2019-02-11T04:51:11.022Z,0
2019-02-11T04:52:11.018Z,0
2019-02-11T04:53:10.988Z,0
2019-02-11T04:54:10.999Z,0
2019-02-11T04:55:10.959Z,0
2019-02-11T04:56:10.936Z,0
2019-02-11T04:57:10.920Z,0
2019-02-11T04:58:10.900Z,0
2019-02-11T04:59:10.889Z,0
2019-02-11T05:00:10.883Z,0
2019-02-11T05:01:10.591Z,0
2019-02-11T05:02:10.834Z,0
2019-02-11T05:03:10.814Z,0
2019-02-11T05:04:10.791Z,0
2019-02-11T05:05:10.772Z,0
2019-02-11T05:06:10.759Z,0
2019-02-11T05:07:10.740Z,0
2019-02-11T05:08:10.462Z,0
2019-02-11T05:09:10.470Z,0
2019-02-11T05:10:10.501Z,0
2019-02-11T05:11:10.664Z,0
2019-02-11T05:12:10.630Z,0
2019-02-11T05:13:10.626Z,0
2019-02-11T05:14:10.607Z,0
2019-02-11T05:15:10.607Z,0
2019-02-11T05:16:10.585Z,0
2019-02-11T05:17:10.548Z,0
2019-02-11T05:18:10.531Z,0
2019-02-11T05:19:10.510Z,0
2019-02-11T05:20:10.488Z,0
2019-02-11T05:21:10.594Z,0
2019-02-11T05:22:10.471Z,0
2019-02-11T05:23:10.437Z,0
2019-02-11T05:24:10.426Z,0
2019-02-11T05:25:10.406Z,0
2019-02-11T05:26:10.377Z,0
2019-02-11T05:27:10.388Z,0
2019-02-11T05:28:10.370Z,0
2019-02-11T05:29:10.320Z,0
2019-02-11T05:30:10.118Z,0
2019-02-11T05:31:10.282Z,0
2019-02-11T05:32:10.015Z,0
2019-02-11T05:33:10.456Z,0
2019-02-11T05:34:10.226Z,0
2019-02-11T05:35:10.256Z,0
2019-02-11T05:36:09.947Z,0
2019-02-11T05:37:10.170Z,0
2019-02-11T05:38:10.156Z,0
2019-02-11T05:39:10.159Z,0
2019-02-11T05:40:10.146Z,0
2019-02-11T05:41:10.112Z,0
2019-02-11T05:42:09.598Z,0
2019-02-11T05:43:10.060Z,0
2019-02-11T05:44:10.825Z,0
2019-02-11T05:45:10.037Z,0
2019-02-11T05:46:10.002Z,0
2019-02-11T05:47:09.755Z,0
2019-02-11T05:48:09.731Z,0
2019-02-11T05:49:10.015Z,0
2019-02-11T05:50:09.981Z,0
2019-02-11T05:51:09.933Z,0
2019-02-11T05:52:09.908Z,0
2019-02-11T05:53:09.642Z,0
2019-02-11T05:54:09.866Z,0
2019-02-11T05:55:09.609Z,0
2019-02-11T05:56:09.574Z,0
2019-02-11T05:57:09.814Z,0
2019-02-11T05:58:09.852Z,0
2019-02-11T05:59:09.777Z,0
2019-02-11T06:00:09.982Z,0
2019-02-11T06:01:09.735Z,0
2019-02-11T06:02:09.466Z,0
2019-02-11T06:03:11.939Z,0
2019-02-11T06:04:09.438Z,0
2019-02-11T06:05:09.650Z,0
2019-02-11T06:06:09.152Z,0
2019-02-11T06:07:09.643Z,0
2019-02-11T06:08:09.366Z,0
2019-02-11T06:09:09.587Z,0
2019-02-11T06:10:09.195Z,0
2019-02-11T06:11:09.304Z,0
2019-02-11T06:12:09.532Z,0
2019-02-11T06:13:09.268Z,0
2019-02-11T06:14:09.570Z,0
2019-02-11T06:15:14.214Z,0
2019-02-11T06:16:09.451Z,0
2019-02-11T06:17:09.442Z,0
2019-02-11T06:18:09.412Z,0
2019-02-11T06:19:09.398Z,0
2019-02-11T06:20:09.133Z,0
2019-02-11T06:21:09.364Z,0
2019-02-11T06:22:09.344Z,0
2019-02-11T06:23:09.082Z,0
2019-02-11T06:24:09.322Z,0
2019-02-11T06:25:09.302Z,0
2019-02-11T06:26:09.300Z,0
2019-02-11T06:27:09.254Z,0
2019-02-11T06:28:09.231Z,0
2019-02-11T06:29:08.972Z,0
2019-02-11T06:30:08.706Z,0
2019-02-11T06:31:09.187Z,0
2019-02-11T06:32:08.907Z,0
2019-02-11T06:33:09.139Z,0
2019-02-11T06:34:08.879Z,0
2019-02-11T06:35:08.858Z,0
2019-02-11T06:36:18.600Z,0
2019-02-11T06:37:09.088Z,0
2019-02-11T06:38:09.106Z,0
2019-02-11T06:39:08.787Z,0
2019-02-11T06:40:09.042Z,0
2019-02-11T06:41:08.821Z,0
2019-02-11T06:42:08.979Z,0
2019-02-11T06:43:08.703Z,0
2019-02-11T06:44:08.936Z,0
2019-02-11T06:45:17.495Z,0
2019-02-11T06:46:08.899Z,0
2019-02-11T06:47:08.897Z,0
2019-02-11T06:48:08.862Z,5
2019-02-11T06:49:08.843Z,5
2019-02-11T06:50:08.582Z,5
2019-02-11T06:51:08.891Z,5
2019-02-11T06:52:08.787Z,5
2019-02-11T06:53:08.771Z,5
2019-02-11T06:54:08.252Z,5
2019-02-11T06:55:08.734Z,5
2019-02-11T06:56:08.481Z,5
2019-02-11T06:57:09.087Z,5
2019-02-11T06:58:08.677Z,10
2019-02-11T06:59:08.663Z,10
2019-02-11T07:00:08.661Z,10
2019-02-11T07:01:08.630Z,15
2019-02-11T07:02:08.407Z,15
2019-02-11T07:03:08.587Z,15
2019-02-11T07:04:08.561Z,15
2019-02-11T07:05:08.558Z,15
2019-02-11T07:06:08.298Z,15
2019-02-11T07:07:08.511Z,15
2019-02-11T07:08:10.503Z,20
2019-02-11T07:09:08.255Z,20
2019-02-11T07:10:08.460Z,20
2019-02-11T07:11:08.198Z,20
2019-02-11T07:12:08.471Z,20
2019-02-11T07:13:08.400Z,25
2019-02-11T07:14:08.381Z,25
2019-02-11T07:15:08.363Z,25
2019-02-11T07:16:08.345Z,25
2019-02-11T07:17:08.377Z,30
2019-02-11T07:18:08.302Z,25
2019-02-11T07:19:07.793Z,30
2019-02-11T07:20:08.296Z,30
2019-02-11T07:21:08.016Z,30
2019-02-11T07:22:08.238Z,30
2019-02-11T07:23:07.793Z,40
2019-02-11T07:24:08.203Z,30
2019-02-11T07:25:07.682Z,30
2019-02-11T07:26:07.920Z,40
2019-02-11T07:27:08.145Z,40
2019-02-11T07:28:08.131Z,35
2019-02-11T07:29:08.104Z,35
2019-02-11T07:30:08.096Z,40
2019-02-11T07:31:08.070Z,35
2019-02-11T07:32:08.051Z,30
2019-02-11T07:33:08.041Z,30
2019-02-11T07:34:08.032Z,25
2019-02-11T07:35:08.019Z,25
2019-02-11T07:36:07.984Z,25
2019-02-11T07:37:07.717Z,30
2019-02-11T07:38:07.951Z,25
2019-02-11T07:39:07.922Z,25
2019-02-11T07:40:07.910Z,20
2019-02-11T07:41:07.887Z,20
2019-02-11T07:42:09.511Z,20
2019-02-11T07:43:07.857Z,20
2019-02-11T07:44:07.831Z,20
2019-02-11T07:45:07.813Z,20
2019-02-11T07:46:07.795Z,20
2019-02-11T07:47:07.789Z,20
2019-02-11T07:48:07.766Z,20
2019-02-11T07:49:07.511Z,20
2019-02-11T07:50:07.740Z,25
2019-02-11T07:51:07.453Z,25
2019-02-11T07:52:07.442Z,30
2019-02-11T07:53:07.433Z,35
2019-02-11T07:54:07.651Z,50
2019-02-11T07:55:07.396Z,55
2019-02-11T07:56:07.614Z,40
2019-02-11T07:57:07.091Z,40
2019-02-11T07:58:07.589Z,35
2019-02-11T07:59:07.562Z,30
2019-02-11T08:00:07.601Z,40
2019-02-11T08:01:07.527Z,40
2019-02-11T08:02:07.511Z,45
2019-02-11T08:03:07.485Z,50
2019-02-11T08:04:07.470Z,55
2019-02-11T08:05:07.223Z,65
2019-02-11T08:06:09.005Z,70
2019-02-11T08:07:07.473Z,75
2019-02-11T08:08:06.905Z,75
2019-02-11T08:09:07.128Z,80
2019-02-11T08:10:07.359Z,75
2019-02-11T08:11:07.105Z,80
2019-02-11T08:12:07.552Z,80
2019-02-11T08:13:07.053Z,100
2019-02-11T08:14:07.283Z,110
2019-02-11T08:15:07.309Z,100
2019-02-11T08:16:07.258Z,95
2019-02-11T08:17:06.990Z,100
2019-02-11T08:18:07.772Z,105
2019-02-11T08:19:07.192Z,120
2019-02-11T08:20:07.220Z,105
2019-02-11T08:21:07.174Z,105
2019-02-11T08:22:07.144Z,100
2019-02-11T08:23:16.410Z,90
2019-02-11T08:24:07.117Z,105
2019-02-11T08:25:06.843Z,100
2019-02-11T08:26:08.392Z,105
2019-02-11T08:27:07.049Z,90
2019-02-11T08:28:06.784Z,80
2019-02-11T08:29:07.017Z,90
2019-02-11T08:30:07.009Z,85
2019-02-11T08:31:06.979Z,80
2019-02-11T08:32:06.968Z,80
2019-02-11T08:33:06.707Z,80
2019-02-11T08:34:06.928Z,80
2019-02-11T08:35:06.909Z,80
2019-02-11T08:36:06.889Z,100
2019-02-11T08:37:06.633Z,110
2019-02-11T08:38:06.854Z,150
2019-02-11T08:39:07.019Z,150
2019-02-11T08:40:06.815Z,145
2019-02-11T08:41:06.818Z,135
2019-02-11T08:42:06.792Z,155
2019-02-11T08:43:06.764Z,180
2019-02-11T08:44:07.823Z,160
2019-02-11T08:45:06.737Z,150
2019-02-11T08:46:06.741Z,145
2019-02-11T08:47:06.696Z,125
2019-02-11T08:48:06.684Z,90
2019-02-11T08:49:06.831Z,100
2019-02-11T08:50:06.219Z,100
2019-02-11T08:51:06.624Z,80
2019-02-11T08:52:06.603Z,80
2019-02-11T08:53:06.350Z,100
2019-02-11T08:54:06.074Z,125
2019-02-11T08:55:06.565Z,95
2019-02-11T08:56:08.242Z,105
2019-02-11T08:57:07.045Z,125
2019-02-11T08:58:06.505Z,125
2019-02-11T08:59:06.480Z,155
2019-02-11T09:00:06.477Z,160
2019-02-11T09:01:06.448Z,150
2019-02-11T09:02:06.431Z,165
2019-02-11T09:03:06.418Z,150
2019-02-11T09:04:06.402Z,160
2019-02-11T09:05:06.133Z,145
2019-02-11T09:06:06.528Z,170
2019-02-11T09:07:06.339Z,230
2019-02-11T09:08:08.073Z,205
2019-02-11T09:09:06.311Z,145
2019-02-11T09:10:06.041Z,155
2019-02-11T09:11:06.274Z,195
2019-02-11T09:12:06.256Z,210
2019-02-11T09:13:06.247Z,170
2019-02-11T09:14:06.221Z,200
2019-02-11T09:15:05.969Z,170
2019-02-11T09:16:06.204Z,165
2019-02-11T09:17:12.838Z,200
2019-02-11T09:18:06.175Z,210
2019-02-11T09:19:05.887Z,180
2019-02-11T09:20:06.117Z,175
2019-02-11T09:21:06.100Z,190
2019-02-11T09:22:14.419Z,215
2019-02-11T09:23:06.072Z,200
2019-02-11T09:24:06.052Z,155
2019-02-11T09:25:05.780Z,175
2019-02-11T09:26:06.016Z,175
2019-02-11T09:27:05.757Z,150
2019-02-11T09:28:06.017Z,145
2019-02-11T09:29:05.963Z,155
2019-02-11T09:30:05.698Z,175
2019-02-11T09:31:05.697Z,145
2019-02-11T09:32:05.926Z,135
2019-02-11T09:33:05.397Z,195
2019-02-11T09:34:05.889Z,150
2019-02-11T09:35:05.613Z,150
2019-02-11T09:36:05.920Z,155
2019-02-11T09:37:05.829Z,150
2019-02-11T09:38:05.808Z,175
2019-02-11T09:39:05.795Z,160
2019-02-11T09:40:05.776Z,150
2019-02-11T09:41:05.760Z,115
2019-02-11T09:42:05.737Z,130
2019-02-11T09:43:05.479Z,155
2019-02-11T09:44:05.907Z,140
2019-02-11T09:45:05.445Z,170
2019-02-11T09:46:13.401Z,115
2019-02-11T09:47:05.655Z,115
2019-02-11T09:48:05.641Z,125
2019-02-11T09:49:05.624Z,125
2019-02-11T09:50:05.598Z,120
2019-02-11T09:51:05.343Z,130
2019-02-11T09:52:05.567Z,170
2019-02-11T09:53:05.050Z,205
2019-02-11T09:54:05.531Z,190
2019-02-11T09:55:05.521Z,180
2019-02-11T09:56:05.500Z,165
2019-02-11T09:57:05.480Z,165
2019-02-11T09:58:05.218Z,170
2019-02-11T09:59:05.459Z,165
2019-02-11T10:00:05.430Z,260
2019-02-11T10:01:05.421Z,250
2019-02-11T10:02:05.394Z,220
2019-02-11T10:03:05.233Z,205
2019-02-11T10:04:05.369Z,215
2019-02-11T10:05:05.349Z,205
2019-02-11T10:06:05.333Z,220
2019-02-11T10:07:05.329Z,220
2019-02-11T10:08:05.299Z,320
2019-02-11T10:09:05.335Z,285
2019-02-11T10:10:05.267Z,180
2019-02-11T10:11:04.999Z,145
2019-02-11T10:12:05.224Z,185
2019-02-11T10:13:05.224Z,175
2019-02-11T10:14:05.194Z,160
2019-02-11T10:15:04.986Z,160
2019-02-11T10:16:12.235Z,205
2019-02-11T10:17:05.152Z,195
2019-02-11T10:18:05.132Z,195
2019-02-11T10:19:05.112Z,160
2019-02-11T10:20:05.098Z,210
2019-02-11T10:21:05.076Z,275
2019-02-11T10:22:05.066Z,295
2019-02-11T10:23:05.056Z,230
2019-02-11T10:24:04.790Z,260
2019-02-11T10:25:04.772Z,250
2019-02-11T10:26:04.496Z,245
2019-02-11T10:27:04.975Z,280
2019-02-11T10:28:04.971Z,290
2019-02-11T10:29:04.947Z,280
2019-02-11T10:30:05.017Z,285
2019-02-11T10:31:04.908Z,285
2019-02-11T10:32:04.901Z,270
2019-02-11T10:33:04.888Z,275
2019-02-11T10:34:04.865Z,235
2019-02-11T10:35:04.997Z,215
2019-02-11T10:36:04.829Z,245
2019-02-11T10:37:04.807Z,245
2019-02-11T10:38:04.843Z,255
2019-02-11T10:39:04.777Z,245
2019-02-11T10:40:04.511Z,215
2019-02-11T10:41:04.501Z,220
2019-02-11T10:42:04.736Z,190
2019-02-11T10:43:04.720Z,190
2019-02-11T10:44:04.699Z,160
2019-02-11T10:45:04.442Z,145
2019-02-11T10:46:04.664Z,140
2019-02-11T10:47:04.656Z,145
2019-02-11T10:48:04.400Z,165
2019-02-11T10:49:04.368Z,150
2019-02-11T10:50:04.596Z,170
2019-02-11T10:51:04.595Z,160
2019-02-11T10:52:04.114Z,175
2019-02-11T10:53:04.301Z,235
2019-02-11T10:54:04.531Z,225
2019-02-11T10:55:04.517Z,225
2019-02-11T10:56:04.500Z,275
2019-02-11T10:57:04.233Z,300
2019-02-11T10:58:04.475Z,295
2019-02-11T10:59:04.457Z,280
2019-02-11T11:00:04.427Z,285
2019-02-11T11:01:04.612Z,270
2019-02-11T11:02:04.420Z,310
2019-02-11T11:03:04.432Z,315
2019-02-11T11:04:04.373Z,290
2019-02-11T11:05:04.167Z,290
2019-02-11T11:06:04.342Z,285
2019-02-11T11:07:04.078Z,225
2019-02-11T11:08:04.319Z,215
2019-02-11T11:09:04.630Z,230
2019-02-11T11:10:04.271Z,250
2019-02-11T11:11:04.258Z,240
2019-02-11T11:12:04.242Z,205
2019-02-11T11:13:04.221Z,190
2019-02-11T11:14:04.204Z,180
2019-02-11T11:15:04.201Z,175
2019-02-11T11:16:03.931Z,185
2019-02-11T11:17:03.661Z,180
2019-02-11T11:18:03.894Z,195
2019-02-11T11:19:04.120Z,195
2019-02-11T11:20:04.111Z,170
2019-02-11T11:21:03.851Z,180
2019-02-11T11:22:03.826Z,175
2019-02-11T11:23:04.062Z,160
2019-02-11T11:24:04.049Z,160
2019-02-11T11:25:04.030Z,165
2019-02-11T11:26:04.019Z,165
2019-02-11T11:27:04.049Z,160
2019-02-11T11:28:03.981Z,160
2019-02-11T11:29:03.716Z,155
2019-02-11T11:30:03.741Z,155
2019-02-11T11:31:03.932Z,160
2019-02-11T11:32:03.960Z,160
2019-02-11T11:33:03.991Z,160
2019-02-11T11:34:03.888Z,160
2019-02-11T11:35:03.620Z,140
2019-02-11T11:36:03.845Z,155
2019-02-11T11:37:03.833Z,170
2019-02-11T11:38:03.819Z,195
2019-02-11T11:39:03.550Z,185
2019-02-11T11:40:03.788Z,165
2019-02-11T11:41:03.764Z,195
2019-02-11T11:42:03.750Z,195
2019-02-11T11:43:03.925Z,190
2019-02-11T11:44:03.720Z,180
2019-02-11T11:45:03.737Z,165
2019-02-11T11:46:03.680Z,150
2019-02-11T11:47:03.414Z,135
2019-02-11T11:48:03.648Z,130
2019-02-11T11:49:03.630Z,130
2019-02-11T11:50:03.618Z,120
2019-02-11T11:51:03.596Z,115
2019-02-11T11:52:03.585Z,115
2019-02-11T11:53:03.370Z,105
2019-02-11T11:54:03.554Z,100
2019-02-11T11:55:03.535Z,95
2019-02-11T11:56:07.190Z,100
2019-02-11T11:57:06.348Z,95
2019-02-11T11:58:03.580Z,90
2019-02-11T11:59:03.566Z,90
2019-02-11T12:00:03.651Z,100
2019-02-11T12:01:03.113Z,100
2019-02-11T12:02:03.322Z,90
2019-02-11T12:03:13.792Z,100
2019-02-11T12:04:06.499Z,120
2019-02-11T12:05:02.924Z,160
2019-02-11T12:06:03.407Z,170
2019-02-11T12:07:03.441Z,135
2019-02-11T12:08:03.452Z,145
2019-02-11T12:09:06.560Z,150
2019-02-11T12:10:03.122Z,160
2019-02-11T12:11:03.333Z,145
2019-02-11T12:12:03.334Z,170
2019-02-11T12:13:23.657Z,190
2019-02-11T12:14:03.313Z,195
2019-02-11T12:15:03.259Z,150
2019-02-11T12:16:03.046Z,155
2019-02-11T12:17:11.028Z,160
2019-02-11T12:18:03.209Z,165
2019-02-11T12:19:03.199Z,140
2019-02-11T12:20:03.161Z,175
2019-02-11T12:21:02.932Z,210
2019-02-11T12:22:02.896Z,215
2019-02-11T12:23:03.162Z,200
2019-02-11T12:24:03.084Z,175
2019-02-11T12:25:03.089Z,225
2019-02-11T12:26:03.078Z,235
2019-02-11T12:27:03.066Z,265
2019-02-11T12:28:03.020Z,255
2019-02-11T12:29:02.993Z,235
2019-02-11T12:30:03.059Z,160
2019-02-11T12:31:03.536Z,155
2019-02-11T12:32:02.971Z,200
2019-02-11T12:33:05.225Z,205
2019-02-11T12:34:02.596Z,215
2019-02-11T12:35:02.908Z,225
2019-02-11T12:36:02.887Z,215
2019-02-11T12:37:02.653Z,220
2019-02-11T12:38:02.985Z,245
2019-02-11T12:39:02.855Z,230
2019-02-11T12:40:02.962Z,220
2019-02-11T12:41:02.402Z,215
2019-02-11T12:42:02.818Z,205
2019-02-11T12:43:03.804Z,190
2019-02-11T12:44:02.787Z,190
2019-02-11T12:45:03.001Z,200
2019-02-11T12:46:02.826Z,215
2019-02-11T12:47:20.586Z,165
2019-02-11T12:48:02.885Z,175
2019-02-11T12:49:06.401Z,190
2019-02-11T12:50:02.390Z,180
2019-02-11T12:51:02.697Z,150
2019-02-11T12:52:02.409Z,140
2019-02-11T12:53:02.692Z,160
2019-02-11T12:54:02.597Z,175
2019-02-11T12:55:07.371Z,180
2019-02-11T12:56:07.200Z,185
2019-02-11T12:57:02.514Z,160
2019-02-11T12:58:02.542Z,165
2019-02-11T12:59:02.650Z,195
2019-02-11T13:00:02.899Z,210
2019-02-11T13:01:02.508Z,245
2019-02-11T13:02:02.228Z,240
2019-02-11T13:03:02.219Z,225
2019-02-11T13:04:02.457Z,210
2019-02-11T13:05:02.448Z,160
2019-02-11T13:06:02.489Z,125
2019-02-11T13:07:02.459Z,130
2019-02-11T13:08:02.198Z,160
2019-02-11T13:09:02.535Z,150
2019-02-11T13:10:02.339Z,175
2019-02-11T13:11:02.107Z,155
2019-02-11T13:12:03.037Z,135
2019-02-11T13:13:05.908Z,140
2019-02-11T13:14:02.047Z,155
2019-02-11T13:15:02.383Z,135
2019-02-11T13:16:11.379Z,95
2019-02-11T13:17:32.529Z,85
2019-02-11T13:18:02.947Z,80
2019-02-11T13:19:02.227Z,75
2019-02-11T13:20:19.857Z,70
2019-02-11T13:21:02.207Z,55
2019-02-11T13:22:02.153Z,50
2019-02-11T13:23:02.790Z,50
2019-02-11T13:24:02.152Z,60
2019-02-11T13:25:02.176Z,70
2019-02-11T13:26:02.125Z,70
2019-02-11T13:27:01.858Z,85
2019-02-11T13:28:01.808Z,80
2019-02-11T13:29:02.051Z,100
2019-02-11T13:30:01.889Z,130
2019-02-11T13:31:02.207Z,160
2019-02-11T13:32:02.012Z,155
2019-02-11T13:33:02.097Z,160
2019-02-11T13:34:01.458Z,140
2019-02-11T13:35:01.985Z,95
2019-02-11T13:36:01.978Z,75
2019-02-11T13:37:01.910Z,80
2019-02-11T13:38:05.329Z,90
2019-02-11T13:39:02.014Z,145
2019-02-11T13:40:01.891Z,160
2019-02-11T13:41:01.995Z,170
2019-02-11T13:42:01.604Z,155
2019-02-11T13:43:01.845Z,120
2019-02-11T13:44:01.889Z,90
2019-02-11T13:45:01.803Z,80
2019-02-11T13:46:01.753Z,95
2019-02-11T13:47:01.744Z,135
2019-02-11T13:48:07.022Z,150
2019-02-11T13:49:01.777Z,115
2019-02-11T13:50:01.795Z,100
2019-02-11T13:51:01.774Z,100
2019-02-11T13:52:01.181Z,145
2019-02-11T13:53:01.647Z,160
2019-02-11T13:54:01.594Z,160
2019-02-11T13:55:01.610Z,155
2019-02-11T13:56:04.627Z,140
2019-02-11T13:57:01.729Z,125
2019-02-11T13:58:01.625Z,110
2019-02-11T13:59:02.135Z,85
2019-02-11T14:00:01.511Z,65
2019-02-11T14:01:01.489Z,60
2019-02-11T14:02:01.628Z,80
2019-02-11T14:03:01.934Z,100
2019-02-11T14:04:01.184Z,110
2019-02-11T14:05:01.161Z,120
2019-02-11T14:06:01.405Z,110
2019-02-11T14:07:01.397Z,115
2019-02-11T14:08:01.164Z,135
2019-02-11T14:09:01.395Z,155
2019-02-11T14:10:04.715Z,160
2019-02-11T14:11:01.419Z,135
2019-02-11T14:12:01.364Z,130
2019-02-11T14:13:01.129Z,125
2019-02-11T14:14:12.537Z,105
2019-02-11T14:15:01.141Z,110
2019-02-11T14:16:01.430Z,125
2019-02-11T14:17:01.230Z,130
2019-02-11T14:18:22.676Z,125